createdAt,value
2022-09-28T00:01:25.993Z,10.10
2022-09-28T00:03:57.649Z,11.45
2022-09-28T00:06:28.539Z,7.82
2022-09-28T00:08:58.926Z,9.82
2022-09-28T00:11:29.261Z,9.25
2022-09-28T00:14:00.259Z,9.60
2022-09-28T00:16:34.118Z,8.88
2022-09-28T00:19:04.027Z,9.50
2022-09-28T00:21:34.776Z,9.57
2022-09-28T00:24:16.249Z,5.90
2022-09-28T00:26:48.556Z,5.80
2022-09-28T00:29:21.287Z,6.55
2022-09-28T00:31:50.558Z,7.10
2022-09-28T00:34:19.220Z,6.72
2022-09-28T00:36:48.302Z,6.72
2022-09-28T00:39:18.715Z,9.10
2022-09-28T00:41:47.795Z,7.32
2022-09-28T00:44:44.424Z,7.70
2022-09-28T00:47:41.144Z,7.18
2022-09-28T00:50:15.904Z,7.03
2022-09-28T00:52:50.237Z,6.55
2022-09-28T00:55:23.976Z,5.95
2022-09-28T00:57:56.618Z,5.38
2022-09-28T01:00:25.435Z,6.22
2022-09-28T01:05:23.393Z,7.65
2022-09-28T01:07:52.219Z,4.30
2022-09-28T01:10:22.557Z,5.60
2022-09-28T01:12:51.067Z,5.60
2022-09-28T01:15:21.980Z,5.85
2022-09-28T01:18:02.780Z,6.95
2022-09-28T01:20:56.575Z,5.60
2022-09-28T01:23:51.327Z,3.95
2022-09-28T01:26:45.028Z,4.57
2022-09-28T01:29:20.363Z,6.45
2022-09-28T01:31:54.147Z,5.63
2022-09-28T01:34:28.727Z,4.65
2022-09-28T01:36:59.476Z,6.53
2022-09-28T01:39:32.688Z,4.47
2022-09-28T01:42:07.008Z,5.85
2022-09-28T01:44:41.907Z,3.78
2022-09-28T01:47:14.315Z,6.18
2022-09-28T01:49:47.956Z,6.43
2022-09-28T01:52:21.361Z,5.45
2022-09-28T01:54:57.268Z,4.70
2022-09-28T01:57:35.357Z,4.60
2022-09-28T02:00:08.483Z,7.07
2022-09-28T02:02:49.608Z,4.82
2022-09-28T02:05:28.663Z,3.78
2022-09-28T02:08:01.068Z,4.03
2022-09-28T02:10:35.023Z,4.78
2022-09-28T02:13:10.897Z,5.10
2022-09-28T02:15:47.637Z,3.05
2022-09-28T02:18:16.468Z,5.18
2022-09-28T02:20:53.455Z,5.70
2022-09-28T02:23:24.416Z,4.88
2022-09-28T02:26:02.022Z,2.70
2022-09-28T02:28:32.147Z,3.28
2022-09-28T02:31:00.711Z,4.55
2022-09-28T02:33:34.825Z,5.18
2022-09-28T02:36:04.798Z,4.13
2022-09-28T02:38:38.602Z,4.80
2022-09-28T02:41:12.656Z,4.55
2022-09-28T02:43:59.076Z,4.35
2022-09-28T02:46:33.484Z,5.05
2022-09-28T02:49:24.465Z,2.60
2022-09-28T02:52:10.750Z,4.47
2022-09-28T02:55:19.361Z,3.92
2022-09-28T02:58:01.962Z,1.88
2022-09-28T03:00:34.154Z,3.58
2022-09-28T03:03:11.729Z,4.05
2022-09-28T03:05:48.421Z,4.28
2022-09-28T03:08:25.276Z,2.78
2022-09-28T03:10:59.388Z,5.20
2022-09-28T03:13:29.771Z,3.63
2022-09-28T03:16:11.516Z,3.65
2022-09-28T03:18:41.345Z,3.85
2022-09-28T03:23:40.642Z,6.82
2022-09-28T03:26:09.777Z,5.05
2022-09-28T03:28:38.950Z,6.30
2022-09-28T03:31:10.949Z,4.28
2022-09-28T03:33:40.046Z,5.93
2022-09-28T03:36:10.434Z,3.63
2022-09-28T03:38:40.316Z,3.95
2022-09-28T03:41:09.586Z,2.60
2022-09-28T03:43:41.741Z,2.53
2022-09-28T03:46:12.040Z,3.22
2022-09-28T03:48:45.899Z,3.42
2022-09-28T03:53:45.639Z,4.82
2022-09-28T03:56:17.520Z,3.38
2022-09-28T03:58:46.049Z,6.32
2022-09-28T04:03:48.659Z,3.28
2022-09-28T04:06:17.273Z,5.57
2022-09-28T04:08:45.727Z,3.80
2022-09-28T04:11:15.017Z,3.15
2022-09-28T04:13:43.481Z,2.65
2022-09-28T04:16:17.967Z,2.28
2022-09-28T04:18:55.331Z,3.63
2022-09-28T04:21:47.187Z,2.92
2022-09-28T04:24:16.650Z,3.83
2022-09-28T04:26:45.144Z,6.05
2022-09-28T04:29:17.185Z,5.20
2022-09-28T04:31:58.512Z,3.80
2022-09-28T04:34:43.153Z,5.68
2022-09-28T04:37:13.012Z,3.80
2022-09-28T04:42:18.873Z,6.38
2022-09-28T04:44:47.815Z,4.43
2022-09-28T04:47:17.708Z,5.60
2022-09-28T04:50:10.668Z,4.03
2022-09-28T04:52:59.104Z,3.80
2022-09-28T04:55:28.938Z,5.68
2022-09-28T04:57:57.399Z,3.85
2022-09-28T05:00:25.755Z,3.85
2022-09-28T05:03:14.164Z,3.33
2022-09-28T05:06:01.650Z,3.97
2022-09-28T05:08:46.936Z,5.88
2022-09-28T05:11:16.358Z,2.63
2022-09-28T05:16:17.030Z,2.80
2022-09-28T05:19:07.549Z,2.20
2022-09-28T05:21:35.996Z,5.93
2022-09-28T05:24:07.752Z,3.75
2022-09-28T05:26:38.950Z,4.38
2022-09-28T05:29:11.942Z,3.83
2022-09-28T05:31:43.220Z,7.07
2022-09-28T05:34:21.896Z,4.28
2022-09-28T05:36:50.323Z,7.03
2022-09-28T05:39:19.691Z,3.45
2022-09-28T05:41:48.061Z,3.95
2022-09-28T05:44:16.583Z,1.85
2022-09-28T05:49:14.274Z,3.05
2022-09-28T05:51:44.097Z,1.73
2022-09-28T05:54:12.798Z,2.00
2022-09-28T05:56:45.260Z,3.13
2022-09-28T05:59:13.817Z,3.00
2022-09-28T06:01:43.140Z,2.63
2022-09-28T06:04:12.902Z,3.28
2022-09-28T06:06:44.856Z,3.72
2022-09-28T06:09:13.426Z,2.78
2022-09-28T06:11:41.944Z,1.92
2022-09-28T06:14:19.788Z,3.15
2022-09-28T06:16:49.258Z,4.85
2022-09-28T06:19:20.700Z,3.10
2022-09-28T06:22:18.785Z,4.35
2022-09-28T06:27:26.027Z,5.00
2022-09-28T06:29:54.535Z,2.30
2022-09-28T06:32:22.945Z,3.75
2022-09-28T06:34:56.199Z,3.47
2022-09-28T06:37:29.020Z,5.88
2022-09-28T06:39:58.581Z,5.07
2022-09-28T06:45:14.029Z,4.47
2022-09-28T06:48:03.204Z,3.13
2022-09-28T06:50:42.577Z,3.90
2022-09-28T06:53:32.697Z,4.95
2022-09-28T06:56:32.857Z,5.35
2022-09-28T06:59:02.229Z,6.85
2022-09-28T07:01:30.868Z,7.72
2022-09-28T07:04:07.793Z,6.93
2022-09-28T07:07:06.261Z,4.43
2022-09-28T07:09:56.691Z,7.13
2022-09-28T07:12:45.485Z,5.32
2022-09-28T07:15:33.435Z,6.18
2022-09-28T07:18:05.424Z,4.22
2022-09-28T07:20:47.179Z,2.80
2022-09-28T07:23:21.107Z,3.60
2022-09-28T07:26:09.745Z,3.45
2022-09-28T07:28:56.877Z,3.13
2022-09-28T07:31:35.315Z,3.17
2022-09-28T07:34:23.708Z,2.97
2022-09-28T07:37:09.010Z,3.78
2022-09-28T07:39:57.503Z,3.22
2022-09-28T07:42:30.143Z,2.42
2022-09-28T07:44:59.608Z,1.45
2022-09-28T07:47:33.841Z,2.92
2022-09-28T07:50:33.438Z,2.28
2022-09-28T07:53:10.684Z,2.67
2022-09-28T07:55:52.861Z,2.08
2022-09-28T07:58:39.830Z,1.83
2022-09-28T08:01:46.229Z,2.55
2022-09-28T08:04:16.004Z,3.20
2022-09-28T08:06:48.405Z,1.45
2022-09-28T08:09:17.217Z,2.15
2022-09-28T08:12:05.562Z,3.53
2022-09-28T08:14:49.383Z,3.10
2022-09-28T08:17:32.929Z,2.10
2022-09-28T08:20:23.552Z,2.42
2022-09-28T08:22:52.654Z,2.03
2022-09-28T08:25:21.259Z,2.15
2022-09-28T08:27:50.058Z,1.83
2022-09-28T08:30:22.581Z,1.92
2022-09-28T08:33:05.223Z,1.55
2022-09-28T08:35:46.945Z,1.88
2022-09-28T08:38:44.559Z,3.58
2022-09-28T08:41:42.485Z,3.53
2022-09-28T08:48:04.492Z,2.25
2022-09-28T08:50:47.169Z,1.90
2022-09-28T08:53:52.404Z,3.95
2022-09-28T08:56:32.770Z,3.78
2022-09-28T08:59:05.691Z,2.05
2022-09-28T09:01:40.069Z,4.43
2022-09-28T09:04:14.851Z,5.63
2022-09-28T09:07:22.683Z,3.08
2022-09-28T09:10:17.133Z,3.58
2022-09-28T09:12:59.983Z,4.20
2022-09-28T09:15:40.704Z,4.07
2022-09-28T09:18:37.559Z,6.15
2022-09-28T09:21:42.436Z,6.95
2022-09-28T09:24:33.267Z,4.45
2022-09-28T09:27:07.703Z,4.25
2022-09-28T09:29:54.621Z,4.72
2022-09-28T09:32:42.415Z,5.05
2022-09-28T09:35:31.983Z,4.05
2022-09-28T09:38:37.212Z,4.50
2022-09-28T09:41:39.253Z,4.75
2022-09-28T09:44:52.535Z,5.47
2022-09-28T09:47:43.248Z,3.60
2022-09-28T09:50:39.512Z,5.38
2022-09-28T09:53:20.994Z,7.35
2022-09-28T09:55:57.471Z,6.50
2022-09-28T09:58:46.423Z,6.90
2022-09-28T10:01:29.027Z,8.75
2022-09-28T10:04:28.884Z,7.45
2022-09-28T10:07:06.352Z,8.00
2022-09-28T10:09:44.222Z,7.85
2022-09-28T10:12:28.196Z,9.73
2022-09-28T10:14:57.513Z,8.13
2022-09-28T10:17:29.261Z,7.13
2022-09-28T10:20:17.565Z,8.40
2022-09-28T10:23:03.342Z,9.13
2022-09-28T10:25:35.009Z,8.38
2022-09-28T10:28:06.913Z,8.32
2022-09-28T10:30:44.885Z,9.25
2022-09-28T10:33:30.892Z,9.17
2022-09-28T10:36:00.901Z,8.35
2022-09-28T10:38:31.067Z,8.35
2022-09-28T10:41:13.750Z,8.48
2022-09-28T10:44:07.521Z,8.07
2022-09-28T10:47:01.023Z,7.60
2022-09-28T10:49:46.798Z,8.50
2022-09-28T10:52:33.452Z,6.57
2022-09-28T10:55:02.254Z,7.05
2022-09-28T10:57:36.773Z,6.60
2022-09-28T11:00:32.276Z,6.80
2022-09-28T11:03:24.379Z,8.25
2022-09-28T11:06:01.740Z,7.47
2022-09-28T11:08:34.512Z,6.00
2022-09-28T11:11:11.670Z,7.20
2022-09-28T11:13:46.515Z,6.32
2022-09-28T11:16:24.519Z,9.40
2022-09-28T11:18:53.255Z,6.70
2022-09-28T11:21:26.219Z,6.45
2022-09-28T11:24:06.578Z,5.68
2022-09-28T11:26:42.131Z,5.95
2022-09-28T11:29:24.029Z,5.95
2022-09-28T11:32:15.698Z,6.22
2022-09-28T11:35:04.783Z,6.43
2022-09-28T11:37:59.098Z,7.80
2022-09-28T11:41:03.876Z,6.72
2022-09-28T11:43:53.774Z,5.53
2022-09-28T11:46:32.901Z,6.75
2022-09-28T11:49:23.679Z,6.03
2022-09-28T11:51:55.743Z,6.50
2022-09-28T11:54:33.004Z,7.38
2022-09-28T11:57:06.094Z,5.65
2022-09-28T11:59:41.097Z,6.70
2022-09-28T12:02:17.885Z,6.30
2022-09-28T12:05:05.751Z,5.57
2022-09-28T12:07:38.739Z,4.57
2022-09-28T12:10:21.771Z,4.63
2022-09-28T12:12:55.629Z,5.95
2022-09-28T12:15:38.235Z,5.70
2022-09-28T12:18:24.570Z,5.70
2022-09-28T12:21:05.073Z,5.63
2022-09-28T12:23:37.272Z,6.50
2022-09-28T12:26:12.988Z,4.88
2022-09-28T12:28:46.616Z,7.65
2022-09-28T12:31:20.532Z,7.47
2022-09-28T12:33:52.574Z,6.45
2022-09-28T12:36:34.606Z,6.72
2022-09-28T12:39:35.701Z,6.78
2022-09-28T12:42:24.356Z,5.50
2022-09-28T12:45:18.952Z,6.28
2022-09-28T12:48:17.327Z,9.00
2022-09-28T12:50:57.150Z,8.98
2022-09-28T12:53:56.027Z,6.97
2022-09-28T12:56:34.609Z,7.10
2022-09-28T12:59:16.414Z,8.85
2022-09-28T13:02:00.558Z,7.55
2022-09-28T13:04:45.690Z,7.35
2022-09-28T13:07:21.826Z,7.57
2022-09-28T13:10:04.444Z,7.70
2022-09-28T13:12:47.357Z,6.88
2022-09-28T13:15:39.559Z,11.20
2022-09-28T13:18:20.522Z,9.13
2022-09-28T13:21:06.723Z,7.60
2022-09-28T13:23:39.369Z,7.72
2022-09-28T13:26:18.202Z,8.52
2022-09-28T13:31:21.851Z,7.55
2022-09-28T13:33:51.487Z,7.57
2022-09-28T13:36:41.683Z,6.43
2022-09-28T13:39:38.731Z,8.20
2022-09-28T13:42:11.364Z,7.32
2022-09-28T13:45:09.603Z,7.30
2022-09-28T13:47:51.815Z,7.38
2022-09-28T13:50:34.531Z,7.15
2022-09-28T13:53:13.629Z,6.57
2022-09-28T13:55:58.079Z,4.97
2022-09-28T13:58:32.002Z,7.25
2022-09-28T14:01:06.853Z,10.25
2022-09-28T14:03:54.355Z,9.02
2022-09-28T14:06:27.913Z,7.40
2022-09-28T14:09:24.448Z,7.72
2022-09-28T14:11:58.079Z,4.65
2022-09-28T14:14:48.729Z,6.13
2022-09-28T14:17:56.028Z,4.38
2022-09-28T14:20:31.538Z,3.65
2022-09-28T14:23:18.614Z,4.72
2022-09-28T14:26:00.339Z,7.22
2022-09-28T14:28:45.437Z,5.85
2022-09-28T14:31:27.644Z,5.55
2022-09-28T14:37:46.031Z,6.90
2022-09-28T14:40:39.699Z,5.43
2022-09-28T14:43:32.011Z,4.97
2022-09-28T14:46:40.011Z,3.80
2022-09-28T14:49:43.001Z,5.60
2022-09-28T14:52:19.260Z,7.07
2022-09-28T14:54:54.921Z,5.78
2022-09-28T14:57:32.904Z,5.68
2022-09-28T15:00:09.119Z,7.53
2022-09-28T15:02:45.861Z,6.60
2022-09-28T15:05:24.107Z,6.95
2022-09-28T15:07:54.491Z,8.98
2022-09-28T15:10:31.535Z,8.32
2022-09-28T15:13:02.566Z,10.10
2022-09-28T15:15:37.112Z,8.13
2022-09-28T15:18:28.996Z,9.68
2022-09-28T15:20:57.542Z,9.32
2022-09-28T15:23:29.330Z,9.55
2022-09-28T15:25:57.844Z,10.68
2022-09-28T15:28:26.283Z,10.30
2022-09-28T15:31:01.084Z,11.13
2022-09-28T15:33:50.404Z,19.02
2022-09-28T15:36:24.628Z,15.35
2022-09-28T15:39:01.512Z,14.98
2022-09-28T15:41:32.911Z,12.82
2022-09-28T15:44:29.193Z,11.70
2022-09-28T15:47:14.015Z,11.10
2022-09-28T15:49:50.769Z,16.60
2022-09-28T15:52:29.942Z,13.48
2022-09-28T15:55:01.064Z,10.93
2022-09-28T15:57:37.568Z,14.32
2022-09-28T16:00:08.762Z,13.70
2022-09-28T16:02:40.576Z,16.48
2022-09-28T16:05:46.783Z,14.85
2022-09-28T16:08:25.094Z,11.93
2022-09-28T16:11:06.017Z,14.70
2022-09-28T16:13:35.325Z,13.93
2022-09-28T16:16:17.280Z,10.38
2022-09-28T16:18:50.266Z,13.25
2022-09-28T16:21:37.670Z,11.82
2022-09-28T16:24:06.541Z,12.95
2022-09-28T16:29:26.504Z,13.43
2022-09-28T16:31:57.526Z,14.30
2022-09-28T16:34:31.280Z,12.18
2022-09-28T16:37:01.978Z,12.20
2022-09-28T16:39:32.805Z,14.38
2022-09-28T16:42:03.748Z,13.02
2022-09-28T16:44:36.011Z,11.88
2022-09-28T16:47:04.622Z,12.60
2022-09-28T16:49:44.953Z,13.75
2022-09-28T16:52:56.758Z,12.25
2022-09-28T16:55:40.188Z,19.83
2022-09-28T16:58:09.985Z,12.75
2022-09-28T17:00:43.877Z,12.20
2022-09-28T17:03:18.436Z,12.35
2022-09-28T17:05:50.914Z,13.50
2022-09-28T17:08:25.162Z,15.55
2022-09-28T17:13:48.893Z,14.95
2022-09-28T17:16:20.988Z,14.73
2022-09-28T17:18:54.752Z,14.55
2022-09-28T17:21:24.097Z,15.43
2022-09-28T17:23:54.149Z,13.60
2022-09-28T17:26:30.778Z,16.40
2022-09-28T17:29:00.411Z,12.93
2022-09-28T17:31:30.858Z,20.50
2022-09-28T17:34:01.143Z,14.15
2022-09-28T17:36:30.587Z,12.70
2022-09-28T17:39:08.696Z,18.02
2022-09-28T17:41:37.800Z,14.93
2022-09-28T17:44:06.727Z,18.17
2022-09-28T17:46:39.849Z,16.02
2022-09-28T17:49:11.880Z,15.32
2022-09-28T17:51:41.005Z,14.50
2022-09-28T17:54:20.897Z,11.75
2022-09-28T17:56:49.988Z,15.82
2022-09-28T18:01:48.593Z,15.82
2022-09-28T18:04:39.727Z,23.05
2022-09-28T18:07:07.697Z,16.60
2022-09-28T18:09:41.286Z,14.18
2022-09-28T18:12:10.457Z,16.13
2022-09-28T18:14:40.058Z,19.63
2022-09-28T18:17:09.104Z,16.95
2022-09-28T18:22:11.134Z,21.30
2022-09-28T18:24:43.745Z,20.75
2022-09-28T18:27:13.116Z,18.45
2022-09-28T18:29:41.672Z,19.88
2022-09-28T18:32:10.675Z,19.15
2022-09-28T18:37:11.150Z,22.27
2022-09-28T18:39:48.624Z,18.25
2022-09-28T18:42:17.279Z,18.30
2022-09-28T18:44:47.862Z,17.33
2022-09-28T18:47:16.495Z,19.73
2022-09-28T18:49:46.805Z,22.10
2022-09-28T18:52:15.903Z,14.90
2022-09-28T18:54:46.789Z,23.00
2022-09-28T18:57:15.444Z,22.13
2022-09-28T18:59:51.169Z,17.23
2022-09-28T19:02:20.154Z,20.73
2022-09-28T19:07:17.053Z,21.00
2022-09-28T19:09:46.967Z,18.75
2022-09-28T19:12:16.166Z,18.55
2022-09-28T19:14:44.670Z,16.85
2022-09-28T19:17:15.660Z,16.33
2022-09-28T19:19:47.025Z,15.40
2022-09-28T19:22:18.280Z,16.60
2022-09-28T19:24:48.436Z,20.08
2022-09-28T19:27:17.010Z,20.40
2022-09-28T19:29:50.692Z,15.63
2022-09-28T19:32:19.242Z,18.05
2022-09-28T19:34:51.251Z,11.35
2022-09-28T19:37:19.746Z,17.55
2022-09-28T19:39:52.574Z,15.32
2022-09-28T19:42:21.124Z,12.13
2022-09-28T19:44:52.736Z,20.10
2022-09-28T19:47:21.837Z,20.98
2022-09-28T19:52:19.941Z,13.80
2022-09-28T19:54:57.090Z,19.05
2022-09-28T19:57:28.448Z,14.30
2022-09-28T20:00:02.763Z,12.77
2022-09-28T20:02:35.225Z,15.43
2022-09-28T20:07:33.481Z,13.70
2022-09-28T20:10:02.037Z,13.63
2022-09-28T20:12:33.140Z,14.07
2022-09-28T20:15:01.652Z,13.23
2022-09-28T20:17:33.644Z,13.57
2022-09-28T20:20:02.645Z,15.30
2022-09-28T20:22:38.385Z,13.05
2022-09-28T20:25:12.678Z,13.80
2022-09-28T20:27:45.849Z,11.93
2022-09-28T20:30:15.448Z,11.40
2022-09-28T20:32:49.312Z,12.65
2022-09-28T20:35:30.292Z,15.63
2022-09-28T20:38:08.154Z,11.98
2022-09-28T20:40:36.913Z,14.85
2022-09-28T20:43:08.157Z,14.40
2022-09-28T20:45:38.193Z,14.68
2022-09-28T20:48:09.774Z,12.35
2022-09-28T20:50:38.182Z,12.88
2022-09-28T20:53:06.689Z,13.50
2022-09-28T20:55:38.068Z,12.93
2022-09-28T20:58:07.897Z,11.95
2022-09-28T21:00:36.589Z,16.17
2022-09-28T21:03:05.153Z,14.27
2022-09-28T21:05:36.584Z,11.32
2022-09-28T21:08:05.018Z,10.68
2022-09-28T21:10:33.423Z,12.05
2022-09-28T21:13:01.779Z,12.98
2022-09-28T21:15:31.598Z,12.18
2022-09-28T21:18:00.128Z,12.05
2022-09-28T21:20:28.535Z,11.73
2022-09-28T21:22:56.890Z,8.23
2022-09-28T21:25:25.388Z,11.98
2022-09-28T21:27:53.783Z,10.13
2022-09-28T21:30:22.248Z,9.25
2022-09-28T21:32:52.890Z,11.52
2022-09-28T21:35:21.321Z,12.57
2022-09-28T21:37:49.814Z,7.57
2022-09-28T21:40:18.178Z,12.80
2022-09-28T21:42:46.535Z,9.95
2022-09-28T21:45:15.158Z,8.48
2022-09-28T21:47:47.605Z,8.70
2022-09-28T21:50:17.863Z,10.63
2022-09-28T21:52:46.312Z,10.80
2022-09-28T21:55:14.761Z,29.30
2022-09-28T21:57:43.096Z,9.93
2022-09-28T22:00:14.341Z,8.80
2022-09-28T22:02:42.993Z,8.85
2022-09-28T22:05:13.306Z,9.65
2022-09-28T22:07:43.649Z,9.23
2022-09-28T22:10:14.300Z,9.05
2022-09-28T22:12:43.209Z,12.43
2022-09-28T22:20:09.080Z,8.43
2022-09-28T22:22:37.464Z,7.95
2022-09-28T22:25:08.019Z,10.38
2022-09-28T22:27:36.452Z,11.43
2022-09-28T22:30:05.317Z,8.88
2022-09-28T22:35:01.810Z,9.35
2022-09-28T22:37:33.231Z,8.23
2022-09-28T22:40:01.993Z,9.93
2022-09-28T22:42:32.843Z,9.52
2022-09-28T22:45:01.247Z,8.18
2022-09-28T22:47:30.035Z,10.38
2022-09-28T22:49:58.461Z,9.30
2022-09-28T22:52:26.869Z,10.43
2022-09-28T22:54:55.255Z,12.00
2022-09-28T22:57:23.647Z,9.38
2022-09-28T22:59:53.429Z,8.98
2022-09-28T23:02:21.819Z,8.10
2022-09-28T23:04:50.172Z,10.05
2022-09-28T23:07:21.639Z,10.63
2022-09-28T23:09:50.065Z,10.85
2022-09-28T23:12:18.631Z,9.15
2022-09-28T23:14:49.295Z,8.65
2022-09-28T23:17:19.379Z,11.98
2022-09-28T23:19:47.852Z,11.65
2022-09-28T23:22:16.329Z,8.32
2022-09-28T23:24:47.287Z,10.52
2022-09-28T23:27:15.842Z,10.77
2022-09-28T23:29:48.958Z,10.75
2022-09-28T23:32:18.772Z,9.30
2022-09-28T23:34:47.155Z,9.20
2022-09-28T23:37:17.895Z,10.10
2022-09-28T23:39:48.132Z,9.63
2022-09-28T23:42:19.148Z,8.50
2022-09-28T23:44:47.645Z,11.85
2022-09-28T23:47:16.216Z,12.70
2022-09-28T23:49:46.094Z,9.18
2022-09-28T23:52:17.073Z,10.98
2022-09-28T23:54:45.492Z,6.70
2022-09-28T23:57:15.034Z,8.30
2022-09-28T23:59:43.516Z,9.00
